Relevés horaires Gornergrat (Suisse)


Relevés horaires à Gornergrat - Lundi 23 Sept. 2013
Heure UTC1 Température [°C] Vent [km/h] Hum. [%] Pres.4 [hPa] Visi. [Km] Nébu. [octa] Préc.5 [mm] Cond.
2m. Res. Ros. Dir.2 Vit. Moy. Raf.3
23:00 7.1 7.1 -16.9 S 3.7 7.4 9.3 16 700(-0.7/3h) -- -- -- --
22:00 7.6 7.6 -13.2 SSE 3.7 3.7 5.6 21 700(-0.5/3h) -- -- -- --
21:00 7.3 7.3 -11.4 NNE 1.9 5.6 7.4 25 700(-0.1/3h) -- -- -- --
20:00 7.5 6.7 -9.6 SE 5.6 5.6 7.4 28 700(-0.2/3h) -- -- -- --
19:00 7.4 7.4 -10.9 NO 3.7 3.7 5.6 26 700(-0.3/3h) -- -- -- --
18:00 8.0 8.0 -11.2 N 1.9 11.1 18.5 24 700(-0.5/3h) -- -- -- --
17:00 7.7 6.4 -9.6 SE 7.4 7.4 9.3 28 700(-0.6/3h) -- -- -- --
16:00 8.7 8.7 -7.6 NNO 1.9 3.7 9.3 31 700(-0.7/3h) -- -- -- --
15:00 9.9 9.9 -8.3 SSE 3.7 11.1 18.5 27 700(-0.8/3h) -- -- -- --
14:00 11.1 10.8 -9.2 SE 5.6 9.3 16.7 23 700(-0.6/3h) -- -- -- --
13:00 9.8 8.9 -11.9 SSE 7.4 11.1 18.5 20 700(-0.3/3h) -- -- -- --
11:00 9.7 8.8 -11.9 S 7.4 7.4 16.7 20 700(0.2/3h) -- -- -- --
10:00 8.2 8.2 -20.5 SSE 3.7 3.7 11.1 11 700(0.3/3h) -- -- -- --
09:00 8.9 8.9 -19.2 SE 3.7 5.6 11.1 12 700(0.3/3h) -- -- -- --
08:00 8.5 8.5 -27.4 SE 1.9 5.6 9.3 6 700(0.2/3h) -- -- -- --
07:00 7.6 7.6 -18.7 ESE 3.7 5.6 7.4 13 700(0.2/3h) -- -- -- --
05:00 7.2 6.4 -28.3 N 5.6 7.4 9.3 6 700(-0.2/3h) -- -- -- --
04:00 7.3 6.5 -28.1 E 5.6 11.1 18.5 6 700(-0.5/3h) -- -- -- --
03:00 7.6 6.8 -26.8 N 5.6 11.1 14.8 6 700(-0.6/3h) -- -- -- --
02:00 6.3 5.3 -26.1 NNO 5.6 11.1 14.8 8 700(-0.5/3h) -- -- -- --
01:00 6.7 5.3 -23.8 ESE 7.4 7.4 13.0 9 700(-0.3/3h) -- -- -- --

1 Coordinated Universal Time. Actuellement il est 21:00 locale et 19:00 UTC.

2 Le vent souffle depuis la direction indiquée vers la direction oposée.

3 Les rafales max. sont disponible 40 min après l'heure du relevé.

4 Pour les stations d'altitude (plus de 600m) le géopotentiel du niveau le plus proche de la pression obligatoire est indiqué.

5 Les stations disposant d'un diffuseur peuvent indiquer "trace". Cela signifie que des précipitations ont touchés le sol mais que la quantité est inférieure à 0.1 mm.

Copyright

Les données affichées sur cette page sont la propriété exclusive de Météo Suisse.

Récapitulatif de la journée
Température [°C] Vent [km/h] Ensoleillement4 [h] Precipitations totale5 [mm] Pression [Hpa]
Min1 Max.2 Moy.3 Max. Min Max.
-- 11.7 7.4 18.5 0 h 0 min 0 700.0 700.0

1 Température minimale relevée entre 18:00 UTC la veille et 18:00 UTC le jour donné.

2 Température maximale relevée entre 06:00 UTC le jour donné et 06:00 UTC le lendemain.

3 Vent moyen de la journée basé sur les relevés horaires.

4 Ensoleillement en heures relevé entre 06:00 UTC la veille et 06:00 UTC le jour donné.

5 Précipitations totales tombées entre 06:00 UTC la jour donné et 06:00 UTC le lendemain.

Graphiques horaires